Terminal Aerodrome Forecast
Issued by NWS

Home | Current Version | Previous Version | Graphics & Text | Print | Product List | Glossary On
Versions: 1 2 3 4 5 6 7 8 9 10 11 12 13 14
423
FTUS45 KGGW 181720
TAFSDY
TAF
KSDY 181720Z 1818/1918 34006KT P6SM SCT012 SCT090
      TEMPO 1818/1820 6SM BR OVC012
     FM182000 36010KT P6SM SCT100
     FM190600 VRB03KT P6SM SCT008
     FM191500 11006KT P6SM BKN025=

USA.gov is the U.S. government's official web portal to all federal, state and local government web resources and services.